Barton City, MI (48705)

6:22 AM EDT on September 22, 2014 (GMT -0400)
RAWS BARTON CITY MI US | Change Station
CLOSE
Current Station
Personal Weather Station
Location: Barton City, MI
Elevation: 833 ft
Nearby Weather Stations

Elev 833 ft 44.66 °N, 83.59 °W | Updated 36 minutes ago

Overcast
Overcast
45 °F
Feels Like 43 °F
N
4
Wind Variable Wind from NW
Gusts 8.0 mph

Today
High -- | Low -- °F
--% Chance of Precip.
Yesterday
High -- | Low -- °F
Precip. -- in
7:21 AM 7:31 PM
Waning Crescent, 3% visible
Pressure 30.08 in
Visibility 10.0 miles
Clouds Overcast 3700 ft
Windchill 43 °F
Dew Point 42 °F
Humidity 88%
Rainfall 0.82 in
Snow Depth Not available.
UV 0 out of 12
Pollen 1.60 out of 12
Ozone Good
PM2.5 Good
Flu Activity Not available.
METAR KOSC 221013Z AUTO 29004KT 10SM OVC037 07/05 A3008 RMK AO2 T00710051

More Conditions Fewer Conditions

Pressure 30.08 in
Visibility 10.0 miles
Clouds Overcast 3700 ft
Windchill 43 °F
Dew Point 42 °F
Humidity 88%
Rainfall 0.82 in
Snow Depth Not available.
UV 0 out of 12
Pollen 1.60 out of 12
Ozone Good
PM2.5 Good
Flu Activity Not available.
METAR KOSC 221013Z AUTO 29004KT 10SM OVC037 07/05 A3008 RMK AO2 T00710051

More Conditions Fewer Conditions

Nowcast | as of 6:00 am EDT on September 22, 2014

At 7 am...mostly cloudy. Temperature 43. Northwest winds 9 mph. At 9 am...partly cloudy. Temperature 44. Northwest winds 10 mph. At 11 am...partly cloudy. Temperature 51. Northwest winds 10 mph. At 1 PM...partly cloudy. Temperature 56. Northwest winds 10 mph.

×

10-Day Weather Forecast

Almanac

Astronomy

Sep. 22, 2014 Rise Set
Actual Time 7:21 AM EDT 7:31 PM EDT
Civil Twilight 6:52 AM EDT 8:01 PM EDT
Nautical Twilight 6:18 AM EDT 8:35 PM EDT
Astronomical Twilight 5:43 AM EDT 9:10 PM EDT
Moon 5:46 AM EDT 6:40 PM EDT
Length of Visible Light 13h 08m
Length of Day
12h 10m
Tomorrow will be 3m 4s shorter.
Waning Crescent, 3% of the Moon is Illuminated
Today
Waning Crescent
Sep 24
New
Oct 1
First Quarter
Oct 8
Full
Oct 15
Last Quarter

Today's Extremes

State Highs State Lows

Community

WunderPhotos

Upload Photos

1,755,406 photos uploaded!

Nearby

Air Quality

  Air Quality AQ Index Pollutant
Yesterday Good
OZONE
Yesterday Good
PM2.5
Current Good
PM2.5
Current Good
OZONE
Monday Good
OZONE
Monday Good
PM2.5

Snow Depth

Station Depth Elevation
No new snow has been reported.

Earthquake Activity

City Distance Mag. Time & Date
No recent earthquake activity has been reported nearby.
Minimum magnitude displayed is 2.5.

Coastal Water Temperatures

Place Temperature
Alpena, MI 59.0 °F

Nearby Weather Stations